Fort Smith Regional Airport
KFSM : now visible

Aeroporto :











RITROVATECI SU...

 
LOGIN :

Iscrizione | Disclaimer

   EN    FR    IT 

 









Sommario :    VFR   VFR Marginale   IFR   IFR Intensivo   IFR Molto Intensivo
Visibilità : 
Base nubi : 
>= 8 km
>= 3000ft
5 / 8 km
1000 / 3000 ft
1500m / 5 km
500 / 1000 ft
800 / 1500m
200 / 500 ft
< 800m
< 200 ft
Simboli :   Temporali  Nebbia  Neve Forte  Precipitazioni Forti  Vento > 20 kt






- Altitudine del aeroporto : 469 ft
- Codice IATA : FSM


KFSM - Fort Smith Regional

ULTIMO METAR :
  • 271953Z 29006KT 10SM CLR 17/08 A3011 RMK AO2 SLP194 T01670083

METARs OBSOLETI :
  • 271853Z 26011KT 10SM CLR 14/08 A3012 RMK AO2 SLP197 T01440078
  • 271753Z 27010KT 10SM CLR 14/08 A3012 RMK AO2 SLP199 T01440083 10144 20094 58004

TAF KFSM
Valido dal 27 a 18 ore il 28 a 18 ore UTC


271720Z 2718/2818 30007KT P6SM SCT250
FM280600 VRB04KT P6SM FEW250
FM281600 07005KT P6SM FEW250
FIR KZME / America del Nord



MetMap, La meteo Aeronautica in un colpo d'occhio ! - Copyright ORBIFLY Dicembre 2007 - Disclaimer

ORBIFLY MET'MAP TEAM :

Programmazione e sviluppo : Alexandra Zaïnal
Concezione : Baudouin d'Aumeries
Aiuto per la programmazione : Marc-Olivier Méhu
Supporto tecnico e logistico : Manuel Goepfert
Aiuto per la traduzione : Arnaldo La Scala

Contatto : metmap@orbifly.com




FONTI E CREDITI :

   NOAA       Earth
Advisory